Kezdőlap
METAR-TAF:

METAR-TAF

Repülőterek :

Albert J. Ellis Airport

Jacksonville, Észak-Karolina, Amerikai Egyesült Államok

földrajzi szélesség: 34-50N, földrajzi hosszúság: 077-37W, magasság: 29 m

Jelenlegi meteorológiai megfigyelések

A jelentés 57 perccel ezelõtt készült, 07:56 UTC
Szélcsend
Hőmérséklet 17°C
Páratartalom 100%
Légköri nyomás 1014 hPa
Látótávolság: 11.3 km
Derült ég

METAR: KOAJ 140756Z AUTO 00000KT 7SM CLR 17/17 A2995 RMK AO2 SLP143 T01720167 $

Idő: 04:53 (08:53 UTC)

Előrejelzés

A jelentés 3 órával és 3 perccel ezelõtt készült, 05:50 UTC
Az előrejelzés 14-én 06 óra UTC és 15-én 06 óra UTC között érvényes
Észak-északkeleti szél 6 kt
Látótávolság: 10 km
Kevés felhő 25000 lábon
14-én 2300 órától UTC szerint
Dél-délkeleti szél 5 kt
Látótávolság: 10 km
Kevés felhő 25000 lábon

TAF: KOAJ 140550Z 1406/1506 03006KT P6SM FEW250 FM142300 15005KT P6SM FEW250 AMD LTD TO CLD VIS AND WIND

Meteorológiai megfigyelések és előrejelzések több, mint 4000 repülőtéren (METAR és TAF jelentéseket).

A térképen piros és sárga pontok jelzik az elérhető meteorológiai állomásokat.

Mozgassa az egeret a pont fölött, hogy megjelenjen az állomás neve.

Azután kattintson az időjárási megfigyelések és előrejelzések megtekintéséhez.

A térkép megváltoztatása: kattintson a fekete keresztel jelölt zöld gombra ráközelítéshez, a vonallal jelölt zöld gombra távolításhoz, vagy a zöld nyilakra a szomszédos térképek eléréséhez.


METAR-TAF: